Time;durP1;ratioP1;P1;durP2;ratioP2;P2;SDS_P1;SDS_P2;PMS_P1;PMS_P2;Temp;Humidity;BMP_temperature;BMP_pressure;BME280_temperature;BME280_humidity;BME280_pressure;Samples;Min_cycle;Max_cycle;Signal;HPM_P1;HPM_P2
2022/07/25 00:01:34;;;;;;;2.65;2.33;;;22.40;1.00;;;;;;4993585;28;20559;-78
2022/07/25 00:04:01;;;;;;;3.08;2.78;;;22.40;1.00;;;;;;4991759;28;20508;-78
2022/07/25 00:06:28;;;;;;;3.30;2.67;;;22.40;1.00;;;;;;4989664;28;20211;-77
2022/07/25 00:08:56;;;;;;;2.53;2.33;;;22.40;1.00;;;;;;4991360;28;20207;-78
2022/07/25 00:11:23;;;;;;;3.00;2.33;;;22.40;1.00;;;;;;4990941;28;20219;-78
2022/07/25 00:13:50;;;;;;;3.10;2.30;;;22.40;1.00;;;;;;4995148;28;20291;-78
2022/07/25 00:16:16;;;;;;;2.70;2.40;;;22.40;1.00;;;;;;4994213;28;20235;-77
2022/07/25 00:18:43;;;;;;;3.75;2.55;;;22.30;1.00;;;;;;4994859;28;20526;-78
2022/07/25 00:21:11;;;;;;;3.42;2.55;;;22.30;1.00;;;;;;4991467;28;20210;-78
2022/07/25 00:23:37;;;;;;;3.42;2.83;;;22.30;1.00;;;;;;4994459;28;20429;-78
2022/07/25 00:26:06;;;;;;;3.28;2.22;;;22.30;1.00;;;;;;4995359;28;20208;-79
2022/07/25 00:28:33;;;;;;;4.53;2.92;;;22.30;1.00;;;;;;4989132;28;20201;-78
2022/07/25 00:31:00;;;;;;;3.50;2.85;;;22.30;1.00;;;;;;4993757;28;20214;-77
2022/07/25 00:33:27;;;;;;;3.83;3.08;;;22.30;1.00;;;;;;4995006;28;20227;-77
2022/07/25 00:35:54;;;;;;;3.58;2.92;;;22.30;1.00;;;;;;4993275;28;20612;-77
2022/07/25 00:38:20;;;;;;;4.25;3.00;;;22.30;1.00;;;;;;4991971;28;20228;-78
2022/07/25 00:40:47;;;;;;;3.10;2.78;;;22.30;1.00;;;;;;4992933;28;20227;-77
2022/07/25 00:43:15;;;;;;;3.13;2.78;;;22.30;1.00;;;;;;4992341;28;20207;-77
2022/07/25 00:45:42;;;;;;;2.90;2.60;;;22.30;1.00;;;;;;4993991;28;20318;-78
2022/07/25 00:48:09;;;;;;;3.40;2.33;;;22.30;1.00;;;;;;4989245;28;20219;-77
2022/07/25 00:50:36;;;;;;;2.33;2.13;;;22.30;1.00;;;;;;4994957;28;20211;-77
2022/07/25 00:53:04;;;;;;;2.75;2.45;;;22.30;1.00;;;;;;4992470;28;20211;-77
2022/07/25 00:55:32;;;;;;;2.88;2.30;;;22.30;1.00;;;;;;4994379;28;20207;-77
2022/07/25 00:57:59;;;;;;;2.78;2.50;;;22.30;1.00;;;;;;4992783;28;20520;-77
2022/07/25 01:00:27;;;;;;;3.03;2.40;;;22.30;1.00;;;;;;4994680;28;20200;-77
2022/07/25 01:02:54;;;;;;;2.53;2.03;;;22.20;1.00;;;;;;4994420;28;20208;-77
2022/07/25 01:05:21;;;;;;;3.40;2.90;;;22.30;1.00;;;;;;4991294;28;20966;-78
2022/07/25 01:07:48;;;;;;;2.80;2.50;;;22.30;1.00;;;;;;4991497;28;20239;-77
2022/07/25 01:10:15;;;;;;;2.40;2.20;;;22.20;1.00;;;;;;4994234;28;20493;-78
2022/07/25 01:12:50;;;;;;;3.15;2.35;;;22.20;1.00;;;;;;4991004;28;20262;-77
2022/07/25 01:15:17;;;;;;;2.55;2.35;;;22.20;1.00;;;;;;4994394;28;20202;-78
2022/07/25 01:17:46;;;;;;;2.20;1.98;;;22.20;1.00;;;;;;4993307;28;20204;-77
2022/07/25 01:20:16;;;;;;;2.58;2.25;;;22.20;1.00;;;;;;4991594;28;20220;-78
2022/07/25 01:22:43;;;;;;;2.45;2.17;;;22.20;1.00;;;;;;4992908;28;20200;-78
2022/07/25 01:25:10;;;;;;;2.88;2.42;;;22.20;1.00;;;;;;4994035;28;20215;-77
2022/07/25 01:27:37;;;;;;;4.32;2.70;;;22.20;1.00;;;;;;4992454;28;20515;-77
2022/07/25 01:30:07;;;;;;;3.47;2.55;;;22.10;1.00;;;;;;4990686;28;20288;-78
2022/07/25 01:32:34;;;;;;;3.60;2.80;;;22.10;1.00;;;;;;4992326;28;20208;-78
2022/07/25 01:35:01;;;;;;;2.78;2.58;;;22.10;1.00;;;;;;4993515;28;20204;-78
2022/07/25 01:37:29;;;;;;;3.58;2.72;;;22.10;1.00;;;;;;4993392;28;20817;-78
2022/07/25 01:39:56;;;;;;;3.13;2.75;;;22.10;1.00;;;;;;4991048;28;20231;-77
2022/07/25 01:42:24;;;;;;;3.00;2.63;;;22.10;1.00;;;;;;4993052;28;20208;-77
2022/07/25 01:44:50;;;;;;;4.25;2.80;;;22.10;1.00;;;;;;4994015;28;20208;-78
2022/07/25 01:47:18;;;;;;;3.33;3.03;;;22.10;1.00;;;;;;4992472;28;20801;-77
2022/07/25 01:49:44;;;;;;;2.97;2.75;;;22.10;1.00;;;;;;4991253;28;20200;-78
2022/07/25 01:52:11;;;;;;;3.03;2.83;;;22.00;1.00;;;;;;4993533;28;20592;-78
2022/07/25 01:54:40;;;;;;;2.75;2.53;;;22.00;1.00;;;;;;4992099;28;20222;-78
2022/07/25 01:57:07;;;;;;;3.03;2.80;;;22.00;91.40;;;;;;4987783;28;20204;-78
2022/07/25 01:59:37;;;;;;;2.90;2.60;;;22.00;99.90;;;;;;4993481;28;20232;-78
2022/07/25 02:02:03;;;;;;;3.42;2.80;;;22.00;1.00;;;;;;4991794;28;20218;-78
2022/07/25 02:04:30;;;;;;;2.80;2.30;;;22.00;1.00;;;;;;4993769;28;20200;-78
2022/07/25 02:06:57;;;;;;;3.13;2.88;;;22.00;15.60;;;;;;4993393;28;20251;-78
2022/07/25 02:09:24;;;;;;;2.97;2.78;;;22.00;99.90;;;;;;4991958;28;20286;-78
2022/07/25 02:11:53;;;;;;;3.25;2.90;;;22.00;1.00;;;;;;4992667;28;20200;-78
2022/07/25 02:14:19;;;;;;;3.50;2.97;;;22.00;99.90;;;;;;4992217;28;20239;-77
2022/07/25 02:16:47;;;;;;;2.72;2.53;;;21.90;1.00;;;;;;4989810;28;20232;-78
2022/07/25 02:19:14;;;;;;;3.65;2.97;;;21.90;99.90;;;;;;4992843;28;20617;-78
2022/07/25 02:21:41;;;;;;;3.50;3.20;;;21.90;99.90;;;;;;4991924;28;20290;-78
2022/07/25 02:24:08;;;;;;;3.75;3.22;;;21.80;99.90;;;;;;4992653;28;20202;-77
2022/07/25 02:26:35;;;;;;;4.18;3.20;;;21.80;99.90;;;;;;4992922;28;20278;-78
2022/07/25 02:29:03;;;;;;;3.40;3.10;;;21.80;99.90;;;;;;4991350;28;20192;-78
2022/07/25 02:31:30;;;;;;;3.33;2.95;;;21.80;1.00;;;;;;4992055;28;20212;-78
2022/07/25 02:33:57;;;;;;;5.13;3.25;;;21.80;1.00;;;;;;4992575;28;20243;-78
2022/07/25 02:36:24;;;;;;;3.78;3.33;;;21.80;1.00;;;;;;4989724;28;20212;-77
2022/07/25 02:38:51;;;;;;;3.85;3.10;;;21.70;1.00;;;;;;4992457;28;20234;-78
2022/07/25 02:41:17;;;;;;;3.03;2.83;;;21.70;1.00;;;;;;4992577;28;20291;-77
2022/07/25 02:43:44;;;;;;;3.00;2.80;;;21.70;1.00;;;;;;4992171;28;20212;-78
2022/07/25 02:46:12;;;;;;;3.45;2.97;;;21.60;31.20;;;;;;4990823;28;20417;-78
2022/07/25 02:48:39;;;;;;;3.15;2.85;;;21.60;16.40;;;;;;4992626;28;20226;-77
2022/07/25 02:51:07;;;;;;;3.22;2.92;;;21.60;99.90;;;;;;4989301;28;20200;-78
2022/07/25 02:53:33;;;;;;;3.10;2.80;;;21.50;99.90;;;;;;4991379;28;20212;-78
2022/07/25 02:56:00;;;;;;;3.33;2.67;;;21.50;1.00;;;;;;4992376;28;20214;-77
2022/07/25 02:58:27;;;;;;;2.85;2.53;;;21.50;1.00;;;;;;4991616;28;20202;-77
2022/07/25 03:00:54;;;;;;;2.90;2.70;;;21.40;1.00;;;;;;4992415;28;20231;-77
2022/07/25 03:03:22;;;;;;;3.00;2.80;;;21.40;1.00;;;;;;4989050;28;20196;-77
2022/07/25 03:05:49;;;;;;;3.70;2.88;;;21.40;1.00;;;;;;4992062;28;20220;-79
2022/07/25 03:08:16;;;;;;;3.17;2.95;;;21.30;1.00;;;;;;4986291;28;20229;-78
2022/07/25 03:10:43;;;;;;;3.60;3.25;;;21.30;1.00;;;;;;4992555;28;20205;-78
2022/07/25 03:13:10;;;;;;;3.15;2.88;;;21.20;1.00;;;;;;4988201;28;20514;-78
2022/07/25 03:15:37;;;;;;;2.80;2.60;;;21.20;1.00;;;;;;4992416;28;20286;-78
2022/07/25 03:18:04;;;;;;;3.47;2.88;;;21.10;1.00;;;;;;4987212;28;20688;-77
2022/07/25 03:20:32;;;;;;;2.95;2.70;;;21.10;1.00;;;;;;4991140;28;20259;-78
2022/07/25 03:22:59;;;;;;;3.00;2.47;;;21.10;1.00;;;;;;4990432;28;20204;-79
2022/07/25 03:25:26;;;;;;;3.22;2.90;;;21.10;1.00;;;;;;4991802;28;20199;-79
2022/07/25 03:27:53;;;;;;;4.43;3.38;;;21.10;1.00;;;;;;4984654;28;20212;-78
2022/07/25 03:30:20;;;;;;;3.05;2.67;;;21.10;1.00;;;;;;4991945;28;20203;-79
2022/07/25 03:32:47;;;;;;;3.88;3.40;;;21.00;1.00;;;;;;4989896;28;20203;-78
2022/07/25 03:35:15;;;;;;;3.08;2.78;;;21.10;1.00;;;;;;4991793;28;20200;-78
2022/07/25 03:37:43;;;;;;;2.97;2.67;;;21.10;1.00;;;;;;4991633;28;20291;-78
2022/07/25 03:40:11;;;;;;;5.15;3.28;;;21.10;1.00;;;;;;4990809;28;20231;-77
2022/07/25 03:42:39;;;;;;;3.90;3.53;;;21.10;1.00;;;;;;4987269;28;20211;-79
2022/07/25 03:45:07;;;;;;;4.10;3.13;;;21.20;1.00;;;;;;4990845;28;20208;-79
2022/07/25 03:47:34;;;;;;;4.95;2.78;;;21.20;1.00;;;;;;4992036;28;20208;-79
2022/07/25 03:50:01;;;;;;;3.40;2.83;;;21.20;1.00;;;;;;4995949;28;20234;-79
2022/07/25 03:52:28;;;;;;;3.83;3.00;;;21.20;1.00;;;;;;4993559;28;20207;-79
2022/07/25 03:54:56;;;;;;;3.80;2.53;;;21.30;99.90;;;;;;4994907;28;20214;-78
2022/07/25 03:57:23;;;;;;;2.97;2.65;;;21.40;99.90;;;;;;4995455;28;20250;-79
2022/07/25 03:59:50;;;;;;;6.03;2.92;;;21.40;99.90;;;;;;4995169;28;20606;-78
2022/07/25 04:02:16;;;;;;;5.22;3.13;;;21.40;1.00;;;;;;4991939;28;20210;-77
2022/07/25 04:04:43;;;;;;;4.82;3.08;;;21.40;1.00;;;;;;4995773;28;20200;-78
2022/07/25 04:07:10;;;;;;;3.35;2.70;;;21.40;1.00;;;;;;4994948;28;20525;-77
2022/07/25 04:09:37;;;;;;;4.63;3.08;;;21.50;1.00;;;;;;4991119;28;20197;-78
2022/07/25 04:12:06;;;;;;;4.97;2.70;;;21.50;1.00;;;;;;4995584;28;20282;-78
2022/07/25 04:14:33;;;;;;;6.03;3.47;;;21.60;1.00;;;;;;4989249;28;20226;-77
2022/07/25 04:17:00;;;;;;;2.70;2.45;;;21.50;1.00;;;;;;4993924;28;20239;-78
2022/07/25 04:19:27;;;;;;;6.40;3.58;;;21.60;1.00;;;;;;4988814;28;20234;-78
2022/07/25 04:21:53;;;;;;;2.97;2.67;;;21.60;15.20;;;;;;4995029;28;20757;-78
2022/07/25 04:24:20;;;;;;;3.13;2.85;;;21.60;23.10;;;;;;4994605;28;20827;-78
2022/07/25 04:26:47;;;;;;;4.40;2.80;;;21.50;26.70;;;;;;4994061;28;20214;-77
2022/07/25 04:29:15;;;;;;;5.70;2.58;;;21.50;34.90;;;;;;4993990;28;20199;-78
2022/07/25 04:31:42;;;;;;;4.35;2.60;;;21.50;43.10;;;;;;4991789;28;20217;-78
2022/07/25 04:34:09;;;;;;;2.65;2.38;;;21.50;48.10;;;;;;4994698;28;20226;-77
2022/07/25 04:36:36;;;;;;;3.85;2.60;;;21.50;50.30;;;;;;4993972;28;20208;-77
2022/07/25 04:39:03;;;;;;;3.55;2.35;;;21.50;58.60;;;;;;4994740;28;20226;-78
2022/07/25 04:41:30;;;;;;;3.58;2.80;;;21.60;57.00;;;;;;4991099;28;20238;-77
2022/07/25 04:43:57;;;;;;;5.28;2.60;;;21.60;57.40;;;;;;4994177;28;20200;-77
2022/07/25 04:46:25;;;;;;;3.15;2.65;;;21.60;57.60;;;;;;4988540;28;20215;-77
2022/07/25 04:48:52;;;;;;;3.17;2.47;;;21.60;57.90;;;;;;4994542;28;20600;-78
2022/07/25 04:51:19;;;;;;;4.05;2.90;;;21.60;56.20;;;;;;4993672;28;20208;-78
2022/07/25 04:53:47;;;;;;;4.40;2.65;;;21.70;55.60;;;;;;4989347;28;20287;-78
2022/07/25 04:56:14;;;;;;;4.97;2.97;;;21.70;57.40;;;;;;4989489;28;20659;-77
2022/07/25 04:58:40;;;;;;;2.85;2.60;;;21.70;58.50;;;;;;4981907;28;20204;-78
2022/07/25 05:01:07;;;;;;;2.60;2.25;;;21.80;62.00;;;;;;4992957;28;20219;-77
2022/07/25 05:03:35;;;;;;;3.85;2.70;;;21.80;63.20;;;;;;4974642;28;20212;-78
2022/07/25 05:06:02;;;;;;;4.65;3.20;;;21.80;68.30;;;;;;4981363;28;20207;-77
2022/07/25 05:08:29;;;;;;;3.10;2.83;;;21.80;74.60;;;;;;4983677;28;20235;-79
2022/07/25 05:10:56;;;;;;;3.30;2.83;;;21.80;79.60;;;;;;4979917;28;20216;-79
2022/07/25 05:13:23;;;;;;;4.47;3.20;;;21.80;81.60;;;;;;4987932;28;20207;-77
2022/07/25 05:15:50;;;;;;;8.68;3.72;;;21.90;82.30;;;;;;4994532;28;20418;-78
2022/07/25 05:18:17;;;;;;;5.93;3.30;;;21.90;73.10;;;;;;4989515;28;20581;-79
2022/07/25 05:20:45;;;;;;;9.43;3.35;;;21.80;62.80;;;;;;4994181;28;20226;-79
2022/07/25 05:23:12;;;;;;;5.95;3.05;;;21.80;35.30;;;;;;4993271;28;20207;-78
2022/07/25 05:25:39;;;;;;;4.93;2.90;;;21.80;16.30;;;;;;4988004;28;20207;-78
2022/07/25 05:28:06;;;;;;;4.25;2.70;;;21.80;8.60;;;;;;4992607;28;20665;-78
2022/07/25 05:30:32;;;;;;;3.53;2.63;;;21.90;3.30;;;;;;4989652;28;20469;-79
2022/07/25 05:32:59;;;;;;;5.13;3.10;;;21.90;1.00;;;;;;4993130;28;20496;-78
2022/07/25 05:35:26;;;;;;;6.88;3.78;;;21.90;1.00;;;;;;4993863;28;20287;-81
2022/07/25 05:37:55;;;;;;;5.78;3.53;;;22.00;1.00;;;;;;4993869;28;20207;-79
2022/07/25 05:40:22;;;;;;;10.80;3.40;;;22.00;2.60;;;;;;4987455;28;20235;-79
2022/07/25 05:42:48;;;;;;;6.25;3.00;;;22.10;8.10;;;;;;4992876;28;20207;-80
2022/07/25 05:45:15;;;;;;;5.38;2.92;;;22.10;14.70;;;;;;4990716;28;20218;-77
2022/07/25 05:47:42;;;;;;;3.95;2.42;;;22.20;17.00;;;;;;4993027;28;20215;-78
2022/07/25 05:50:09;;;;;;;3.80;2.10;;;22.20;24.80;;;;;;4993553;28;20196;-78
2022/07/25 05:52:36;;;;;;;5.72;2.20;;;22.20;38.20;;;;;;4991720;28;20512;-77
2022/07/25 05:55:06;;;;;;;11.48;2.70;;;22.20;53.30;;;;;;4991509;28;20200;-77
2022/07/25 05:57:34;;;;;;;6.03;2.90;;;22.20;56.20;;;;;;4993096;28;20211;-77
2022/07/25 06:00:02;;;;;;;7.72;2.85;;;22.20;56.30;;;;;;4993697;28;20219;-80
2022/07/25 06:02:29;;;;;;;9.50;2.85;;;22.20;60.40;;;;;;4992252;28;20212;-77
2022/07/25 06:04:56;;;;;;;5.28;2.88;;;22.00;71.70;;;;;;4992033;28;20204;-75
2022/07/25 06:07:22;;;;;;;6.63;2.53;;;21.90;83.50;;;;;;4993076;28;20663;-79
2022/07/25 06:09:49;;;;;;;9.27;3.00;;;21.80;90.70;;;;;;4992184;28;20231;-76
2022/07/25 06:12:17;;;;;;;8.35;2.90;;;21.70;92.70;;;;;;4993057;28;20216;-76
2022/07/25 06:14:44;;;;;;;7.60;3.08;;;21.70;98.10;;;;;;4987420;28;20505;-77
2022/07/25 06:17:11;;;;;;;7.00;3.00;;;21.60;99.90;;;;;;4992841;28;20302;-78
2022/07/25 06:19:38;;;;;;;6.32;3.20;;;21.60;99.90;;;;;;4991862;28;20609;-77
2022/07/25 06:22:04;;;;;;;8.57;3.42;;;21.60;99.90;;;;;;4992071;28;20208;-78
2022/07/25 06:24:31;;;;;;;11.68;4.00;;;21.50;99.90;;;;;;4991095;28;20214;-77
2022/07/25 06:26:58;;;;;;;8.05;3.05;;;21.50;99.90;;;;;;4992717;28;20703;-77
2022/07/25 06:29:26;;;;;;;10.48;2.97;;;21.50;99.90;;;;;;4992168;28;20214;-79
2022/07/25 06:31:53;;;;;;;10.40;3.10;;;21.40;99.90;;;;;;4988677;28;20232;-78
2022/07/25 06:34:20;;;;;;;5.90;2.70;;;21.40;99.90;;;;;;4992422;28;20604;-77
2022/07/25 06:36:47;;;;;;;9.18;3.00;;;21.40;99.90;;;;;;4985071;28;20212;-78
2022/07/25 06:39:14;;;;;;;11.65;4.90;;;21.40;99.90;;;;;;4992715;28;20232;-80
2022/07/25 06:41:41;;;;;;;14.77;5.47;;;21.30;99.90;;;;;;4992144;28;20307;-79
2022/07/25 06:44:07;;;;;;;11.88;5.88;;;21.30;99.90;;;;;;4991238;28;20207;-78
2022/07/25 06:46:36;;;;;;;11.85;6.03;;;21.30;99.90;;;;;;4991799;28;20211;-79
2022/07/25 06:49:03;;;;;;;15.23;6.75;;;21.30;99.90;;;;;;4985403;28;20218;-82
2022/07/25 06:51:30;;;;;;;11.70;6.05;;;21.30;99.90;;;;;;4993164;28;20204;-78
2022/07/25 06:53:57;;;;;;;16.77;6.55;;;21.40;99.90;;;;;;4992737;28;20204;-79
2022/07/25 06:56:23;;;;;;;14.20;5.55;;;21.40;99.90;;;;;;4991019;28;20208;-78
2022/07/25 06:58:52;;;;;;;15.10;4.90;;;21.40;99.90;;;;;;4990680;28;20521;-77
2022/07/25 07:01:18;;;;;;;17.27;4.43;;;21.50;99.90;;;;;;4985660;28;20286;-78
2022/07/25 07:03:47;;;;;;;14.27;4.10;;;21.50;99.90;;;;;;4988841;28;20214;-78
2022/07/25 07:06:14;;;;;;;9.15;4.25;;;21.50;99.90;;;;;;4991330;28;20208;-78
2022/07/25 07:08:40;;;;;;;11.85;4.75;;;21.50;99.90;;;;;;4991463;28;20640;-79
2022/07/25 07:11:07;;;;;;;15.43;5.50;;;21.60;99.90;;;;;;4988039;28;20211;-80
2022/07/25 07:13:35;;;;;;;15.48;5.50;;;21.50;99.90;;;;;;4991753;28;20607;-77
2022/07/25 07:16:02;;;;;;;13.77;5.03;;;21.50;99.90;;;;;;4988943;28;20295;-77
2022/07/25 07:18:29;;;;;;;21.45;5.72;;;21.50;99.90;;;;;;4991235;28;20204;-78
2022/07/25 07:20:57;;;;;;;11.10;5.15;;;21.50;99.90;;;;;;4991129;28;20230;-81
2022/07/25 07:23:24;;;;;;;14.43;4.78;;;21.60;99.90;;;;;;4984227;28;20291;-78
2022/07/25 07:25:51;;;;;;;15.68;4.72;;;21.60;99.90;;;;;;4990992;28;20214;-78
2022/07/25 07:28:18;;;;;;;8.90;4.20;;;21.60;99.90;;;;;;4991771;28;20211;-77
2022/07/25 07:30:45;;;;;;;11.88;4.78;;;21.70;99.90;;;;;;4987154;28;20300;-79
2022/07/25 07:33:12;;;;;;;9.02;3.53;;;21.80;99.90;;;;;;4991321;28;20219;-77
2022/07/25 07:35:40;;;;;;;7.88;3.15;;;22.00;99.90;;;;;;4990899;28;20819;-77
2022/07/25 07:38:08;;;;;;;9.23;2.92;;;22.10;99.90;;;;;;4991624;28;20481;-75
2022/07/25 07:40:35;;;;;;;7.63;3.05;;;22.20;99.90;;;;;;4984499;28;20234;-77
2022/07/25 07:43:02;;;;;;;10.07;3.50;;;22.20;99.90;;;;;;4989911;28;20207;-79
2022/07/25 07:45:30;;;;;;;6.18;2.40;;;22.20;99.90;;;;;;4984800;28;20204;-76
2022/07/25 07:47:57;;;;;;;6.82;2.67;;;22.10;99.90;;;;;;4987799;28;20626;-79
2022/07/25 07:50:26;;;;;;;8.38;2.55;;;22.10;99.90;;;;;;4985489;28;20200;-78
2022/07/25 07:52:54;;;;;;;7.43;3.05;;;22.10;99.90;;;;;;4990429;28;20211;-78
2022/07/25 07:58:07;;;;;;;11.07;3.15;;;22.00;99.90;;;;;;4984759;28;20223;-78
2022/07/25 08:00:37;;;;;;;10.82;3.70;;;22.00;99.90;;;;;;4990894;28;20220;-79
2022/07/25 08:03:06;;;;;;;8.60;2.92;;;22.00;99.90;;;;;;4989633;28;20204;-79
2022/07/25 08:05:35;;;;;;;11.20;3.65;;;22.10;99.90;;;;;;4990639;28;20652;-78
2022/07/25 08:08:02;;;;;;;11.82;3.45;;;22.20;99.90;;;;;;4987569;28;20322;-78
2022/07/25 08:10:32;;;;;;;10.15;3.60;;;22.40;99.90;;;;;;4987404;28;20214;-79
2022/07/25 08:12:59;;;;;;;10.55;3.67;;;22.80;99.90;;;;;;4991969;28;20215;-78
2022/07/25 08:15:27;;;;;;;13.55;4.00;;;23.20;99.90;;;;;;4990780;28;20223;-78
2022/07/25 08:17:54;;;;;;;8.25;3.03;;;23.70;99.90;;;;;;4991605;28;20210;-78
2022/07/25 08:20:23;;;;;;;8.45;3.22;;;24.20;90.10;;;;;;4989925;28;20290;-79
2022/07/25 08:22:50;;;;;;;13.30;3.20;;;24.70;45.10;;;;;;4990598;28;20351;-78
2022/07/25 08:25:19;;;;;;;12.30;3.40;;;25.10;16.70;;;;;;4991123;28;20292;-77
2022/07/25 08:27:48;;;;;;;12.23;3.40;;;25.20;1.00;;;;;;4987947;28;20206;-79
2022/07/25 08:30:16;;;;;;;10.23;3.45;;;25.20;1.00;;;;;;4987927;28;20307;-80
2022/07/25 08:32:48;;;;;;;15.65;4.55;;;25.10;1.00;;;;;;4988866;28;20214;-79
2022/07/25 08:35:15;;;;;;;13.63;4.22;;;25.00;1.00;;;;;;4989876;28;20212;-78
2022/07/25 08:37:42;;;;;;;9.68;3.97;;;24.90;2.60;;;;;;4986204;28;20699;-79
2022/07/25 08:40:11;;;;;;;16.25;4.22;;;24.90;1.00;;;;;;4992161;28;20294;-83
2022/07/25 08:42:38;;;;;;;19.95;4.80;;;24.80;1.00;;;;;;4993906;28;20238;-79
2022/07/25 08:45:09;;;;;;;14.38;3.70;;;24.70;1.00;;;;;;4995024;28;20636;-78
2022/07/25 08:47:36;;;;;;;12.55;3.80;;;24.40;1.00;;;;;;4977534;28;20311;-79
2022/07/25 08:50:05;;;;;;;11.50;3.63;;;24.10;6.50;;;;;;4989388;28;20214;-80
2022/07/25 08:52:34;;;;;;;12.18;3.90;;;23.90;28.70;;;;;;4994866;28;20196;-76
2022/07/25 08:55:02;;;;;;;12.27;3.63;;;23.70;49.80;;;;;;4994791;28;20204;-78
2022/07/25 08:57:29;;;;;;;7.88;3.03;;;23.70;50.60;;;;;;4988080;28;20248;-78
2022/07/25 08:59:58;;;;;;;10.10;2.90;;;23.80;50.40;;;;;;4994294;28;20189;-80
2022/07/25 09:02:27;;;;;;;13.05;3.55;;;24.10;46.20;;;;;;4976096;28;20225;-80
2022/07/25 09:04:55;;;;;;;10.85;3.63;;;24.60;16.40;;;;;;4975282;28;20619;-79
2022/07/25 09:07:33;;;;;;;13.60;2.90;;;24.70;1.00;;;;;;4975163;28;20229;-80
2022/07/25 09:10:10;;;;;;;7.22;2.95;;;24.70;1.00;;;;;;4975904;28;20208;-80
2022/07/25 09:12:37;;;;;;;14.45;3.45;;;24.70;1.00;;;;;;4994546;28;20199;-80
2022/07/25 09:15:05;;;;;;;10.10;3.38;;;24.70;1.00;;;;;;4995061;28;20279;-79
2022/07/25 09:17:34;;;;;;;12.73;3.08;;;24.60;1.00;;;;;;4980646;28;20204;-81
2022/07/25 09:20:01;;;;;;;9.57;2.95;;;24.50;1.00;;;;;;4975504;28;20216;-80
2022/07/25 09:22:29;;;;;;;9.13;3.38;;;24.30;9.20;;;;;;4975240;28;20220;-81
2022/07/25 09:24:56;;;;;;;7.82;3.10;;;24.30;20.20;;;;;;4975173;28;20216;-78
2022/07/25 09:27:22;;;;;;;9.73;3.20;;;24.20;6.10;;;;;;4975688;28;20197;-80
2022/07/25 09:29:49;;;;;;;9.52;3.25;;;24.10;17.70;;;;;;4975277;28;20200;-78
2022/07/25 09:32:18;;;;;;;13.55;4.03;;;24.10;16.30;;;;;;4974914;28;20201;-81
2022/07/25 09:34:48;;;;;;;15.07;4.45;;;24.20;20.40;;;;;;4974721;28;20204;-77
2022/07/25 09:37:17;;;;;;;12.40;4.43;;;24.40;12.10;;;;;;4975679;28;20201;-78
2022/07/25 09:39:47;;;;;;;16.95;4.68;;;24.40;1.00;;;;;;4973967;28;20228;-79
2022/07/25 09:42:19;;;;;;;16.45;4.78;;;24.40;1.00;;;;;;4974497;28;20228;-77
2022/07/25 09:45:05;;;;;;;11.02;4.55;;;24.30;1.00;;;;;;4973967;28;20591;-80
2022/07/25 09:47:33;;;;;;;15.63;4.25;;;24.30;1.00;;;;;;4974918;28;20227;-85
2022/07/25 09:50:03;;;;;;;12.10;3.80;;;24.20;7.90;;;;;;4975350;28;20239;-80
2022/07/25 09:52:30;;;;;;;15.88;4.13;;;24.20;1.00;;;;;;4975481;28;20243;-83
2022/07/25 09:54:57;;;;;;;13.57;3.25;;;24.40;1.00;;;;;;4975619;28;20197;-81
2022/07/25 09:57:24;;;;;;;10.93;3.65;;;24.40;1.00;;;;;;4975255;28;20215;-86
2022/07/25 09:59:54;;;;;;;14.43;4.07;;;24.40;1.00;;;;;;4975283;28;20205;-81
2022/07/25 10:02:40;;;;;;;11.75;4.40;;;24.30;1.00;;;;;;4983326;28;20262;-92
2022/07/25 10:05:14;;;;;;;13.38;4.00;;;24.20;1.00;;;;;;4993094;28;20189;-81
2022/07/25 10:07:45;;;;;;;15.70;4.40;;;24.10;1.00;;;;;;4974750;28;20271;-81
2022/07/25 10:10:25;;;;;;;15.25;4.35;;;24.10;1.00;;;;;;4975059;28;20199;-80
2022/07/25 10:13:04;;;;;;;12.18;4.65;;;24.00;1.00;;;;;;4974904;28;20197;-80
2022/07/25 10:15:45;;;;;;;15.80;4.78;;;23.90;1.00;;;;;;4974096;28;20215;-79
2022/07/25 10:18:13;;;;;;;17.85;4.30;;;23.90;1.00;;;;;;4974697;28;20247;-79
2022/07/25 10:20:42;;;;;;;16.05;4.05;;;23.80;3.20;;;;;;4973645;28;20216;-81
2022/07/25 10:23:23;;;;;;;16.25;4.35;;;23.60;17.40;;;;;;4973744;28;20224;-80
2022/07/25 10:26:07;;;;;;;15.18;5.32;;;23.70;18.70;;;;;;4973553;28;20251;-81
2022/07/25 10:28:40;;;;;;;16.63;4.30;;;23.70;15.80;;;;;;4973425;28;20283;-81
2022/07/25 10:31:22;;;;;;;18.17;5.82;;;23.70;8.00;;;;;;4974125;28;20648;-80
2022/07/25 10:33:54;;;;;;;10.32;3.78;;;23.60;9.90;;;;;;4977828;28;20745;-78
2022/07/25 10:36:24;;;;;;;18.63;4.47;;;23.60;15.50;;;;;;4991801;28;20262;-87
2022/07/25 10:38:52;;;;;;;19.75;4.55;;;23.80;19.10;;;;;;4993578;28;20279;-79
2022/07/25 10:41:24;;;;;;;14.48;4.50;;;23.90;10.90;;;;;;4993874;28;20507;-81
2022/07/25 10:43:51;;;;;;;16.30;4.63;;;24.10;1.50;;;;;;4981876;28;20228;-79
2022/07/25 10:46:22;;;;;;;13.13;4.05;;;24.40;1.00;;;;;;4993862;28;20214;-82
2022/07/25 10:48:58;;;;;;;12.77;4.43;;;24.70;1.00;;;;;;4992327;28;20199;-78
2022/07/25 10:51:29;;;;;;;15.23;4.20;;;24.80;1.00;;;;;;4994143;28;20524;-77
2022/07/25 10:53:56;;;;;;;12.63;4.60;;;24.90;1.00;;;;;;4992898;28;20200;-79
2022/07/25 10:56:25;;;;;;;18.73;4.78;;;24.90;1.00;;;;;;4991661;28;20257;-80
2022/07/25 10:58:54;;;;;;;9.93;3.92;;;25.10;1.00;;;;;;4993324;28;20200;-78
2022/07/25 11:01:23;;;;;;;13.25;4.40;;;25.10;1.00;;;;;;4990066;28;20284;-78
2022/07/25 11:03:51;;;;;;;11.52;3.78;;;25.20;1.00;;;;;;4972599;28;20287;-79
2022/07/25 11:06:31;;;;;;;12.05;3.97;;;25.30;1.00;;;;;;4973727;28;20288;-78
2022/07/25 11:09:00;;;;;;;13.48;3.78;;;25.40;1.00;;;;;;4973481;28;20191;-80
2022/07/25 11:11:35;;;;;;;17.02;4.47;;;25.60;1.00;;;;;;4972210;28;20216;-78
2022/07/25 11:14:02;;;;;;;13.10;3.72;;;25.80;1.00;;;;;;4973766;28;20208;-78
2022/07/25 11:16:30;;;;;;;12.57;3.75;;;26.00;1.00;;;;;;4973552;28;20207;-77
2022/07/25 11:18:56;;;;;;;14.82;4.68;;;26.10;1.00;;;;;;4972592;28;20219;-78
2022/07/25 11:21:23;;;;;;;13.65;4.43;;;26.00;1.00;;;;;;4973158;28;20212;-79
2022/07/25 11:23:52;;;;;;;15.35;3.95;;;25.80;1.00;;;;;;4973418;28;20527;-80
2022/07/25 11:26:20;;;;;;;14.23;4.85;;;25.70;1.00;;;;;;4972268;28;20192;-77
2022/07/25 11:28:48;;;;;;;16.45;5.35;;;25.30;1.00;;;;;;4972260;28;20205;-78
2022/07/25 11:31:16;;;;;;;12.20;4.43;;;25.00;1.00;;;;;;4972650;28;20200;-77
2022/07/25 11:33:46;;;;;;;13.10;4.32;;;24.80;1.00;;;;;;4973014;28;20201;-76
2022/07/25 11:36:13;;;;;;;12.80;4.25;;;24.70;1.00;;;;;;4973159;28;20200;-76
2022/07/25 11:38:41;;;;;;;16.88;4.82;;;24.60;1.00;;;;;;4972413;28;20200;-78
2022/07/25 11:41:10;;;;;;;14.02;4.32;;;24.50;1.00;;;;;;4972911;28;20484;-78
2022/07/25 11:43:36;;;;;;;16.70;4.47;;;24.40;1.00;;;;;;4973182;28;20225;-77
2022/07/25 11:46:06;;;;;;;17.25;4.80;;;24.40;1.00;;;;;;4972117;28;20201;-78
2022/07/25 11:48:36;;;;;;;15.85;4.50;;;24.50;1.00;;;;;;4972612;28;20205;-77
2022/07/25 11:51:14;;;;;;;16.05;4.90;;;24.50;1.00;;;;;;4972931;28;20649;-77
2022/07/25 11:53:46;;;;;;;12.98;4.70;;;24.50;1.00;;;;;;4971818;28;20227;-76
2022/07/25 11:56:16;;;;;;;13.63;4.75;;;24.50;1.00;;;;;;4972304;28;20612;-78
2022/07/25 11:58:44;;;;;;;14.70;4.75;;;24.50;1.00;;;;;;4972854;28;20200;-77
2022/07/25 12:01:13;;;;;;;12.30;4.03;;;24.50;1.00;;;;;;4970363;28;20219;-83
2022/07/25 12:03:41;;;;;;;18.52;4.63;;;24.40;1.00;;;;;;4991673;28;20227;-78
2022/07/25 12:06:09;;;;;;;13.20;3.97;;;24.40;1.00;;;;;;4991759;28;20204;-76
2022/07/25 12:08:38;;;;;;;13.68;4.00;;;24.50;1.00;;;;;;4994003;28;20322;-78
2022/07/25 12:11:18;;;;;;;10.68;3.92;;;24.60;1.00;;;;;;4975274;28;20300;-77
2022/07/25 12:13:45;;;;;;;10.48;4.10;;;24.80;1.00;;;;;;4975546;28;20638;-78
2022/07/25 12:16:12;;;;;;;15.52;3.67;;;24.90;1.00;;;;;;4975788;28;20486;-76
2022/07/25 12:18:39;;;;;;;11.65;3.83;;;25.10;1.00;;;;;;4989944;28;20216;-77
2022/07/25 12:21:06;;;;;;;10.18;3.92;;;25.20;1.00;;;;;;4974544;28;20240;-77
2022/07/25 12:23:33;;;;;;;12.38;3.75;;;25.30;1.00;;;;;;4975880;28;20428;-77
2022/07/25 12:26:01;;;;;;;12.25;3.53;;;25.50;1.00;;;;;;4975532;28;20295;-77
2022/07/25 12:28:30;;;;;;;10.25;3.45;;;25.70;1.00;;;;;;4974912;28;20598;-80
2022/07/25 12:30:57;;;;;;;10.88;3.38;;;25.80;1.00;;;;;;4974793;28;20214;-79
2022/07/25 12:33:24;;;;;;;13.25;4.80;;;25.70;1.00;;;;;;4976008;28;20227;-77
2022/07/25 12:35:51;;;;;;;12.80;3.78;;;25.70;1.00;;;;;;4975067;28;20212;-79
2022/07/25 12:38:18;;;;;;;13.65;4.07;;;25.80;1.00;;;;;;4975452;28;20861;-77
2022/07/25 12:40:45;;;;;;;15.00;4.78;;;25.90;1.00;;;;;;4974473;28;20263;-78
2022/07/25 12:43:12;;;;;;;14.35;4.72;;;25.80;1.00;;;;;;4974895;28;20232;-78
2022/07/25 12:45:41;;;;;;;11.48;3.53;;;26.00;1.00;;;;;;4975531;28;20213;-79
2022/07/25 12:48:08;;;;;;;12.85;3.55;;;26.20;1.00;;;;;;4975032;28;20235;-79
2022/07/25 12:50:35;;;;;;;16.42;3.72;;;26.20;1.00;;;;;;4974713;28;20208;-78
2022/07/25 12:53:02;;;;;;;14.88;4.10;;;25.90;1.00;;;;;;4974642;28;20204;-79
2022/07/25 12:55:29;;;;;;;14.60;4.13;;;25.90;1.00;;;;;;4975200;28;20223;-81